Time;durP1;ratioP1;P1;durP2;ratioP2;P2;SDS_P1;SDS_P2;PMS_P1;PMS_P2;Temp;Humidity;BMP_temperature;BMP_pressure;BME280_temperature;BME280_humidity;BME280_pressure;Samples;Min_cycle;Max_cycle;Signal;HPM_P1;HPM_P2
2024/04/15 00:01:10;;;;;;;3.40;1.52;;;;;;;19.52;44.81;98939.03;4288337;33;33589;-87
2024/04/15 00:03:36;;;;;;;3.12;1.50;;;;;;;19.64;44.64;98928.19;4301224;33;33616;-84
2024/04/15 00:06:03;;;;;;;3.37;1.60;;;;;;;19.66;44.76;98925.50;4301635;33;34633;-85
2024/04/15 00:08:30;;;;;;;4.80;1.70;;;;;;;19.65;45.17;98929.06;4303289;33;33621;-88
2024/04/15 00:10:57;;;;;;;4.90;2.00;;;;;;;19.69;44.46;98913.13;4301024;33;33117;-89
2024/04/15 00:13:24;;;;;;;3.37;1.40;;;;;;;19.65;44.77;98913.28;4303920;33;34048;-87
2024/04/15 00:15:55;;;;;;;4.97;1.98;;;;;;;19.69;44.87;98910.50;4306385;33;33870;-88
2024/04/15 00:18:22;;;;;;;3.35;1.45;;;;;;;19.62;44.50;98902.84;4301888;33;34259;-84
2024/04/15 00:20:56;;;;;;;5.07;1.67;;;;;;;19.60;44.41;98907.25;4301541;33;33615;-85
2024/04/15 00:23:22;;;;;;;4.15;1.30;;;;;;;19.45;45.52;98906.78;4288925;33;33856;-87
2024/04/15 00:25:53;;;;;;;7.40;2.15;;;;;;;19.36;45.01;98896.53;4301184;33;33961;-86
2024/04/15 00:28:20;;;;;;;6.22;1.58;;;;;;;19.37;45.21;98892.97;4301789;33;33300;-86
2024/04/15 00:30:48;;;;;;;3.58;1.70;;;;;;;19.42;45.29;98885.81;4301495;33;33312;-88
2024/04/15 00:33:16;;;;;;;4.15;1.90;;;;;;;19.53;45.53;98884.66;4302361;33;33604;-87
2024/04/15 00:35:43;;;;;;;5.45;1.70;;;;;;;19.52;45.44;98880.31;4313078;33;33264;-85
2024/04/15 00:38:10;;;;;;;4.90;1.75;;;;;;;19.51;45.42;98878.56;4301687;33;33422;-88
2024/04/15 00:40:36;;;;;;;2.92;1.50;;;;;;;19.29;44.99;98873.94;4287686;33;32976;-85
2024/04/15 00:43:03;;;;;;;4.70;1.62;;;;;;;19.18;45.86;98873.34;4301768;33;33640;-84
2024/04/15 00:45:31;;;;;;;4.00;1.80;;;;;;;19.24;45.98;98869.69;4295479;33;34844;-84
2024/04/15 00:47:59;;;;;;;4.03;1.80;;;;;;;19.31;46.30;98866.00;4306909;33;33720;-85
2024/04/15 00:50:27;;;;;;;4.43;1.92;;;;;;;19.42;46.69;98851.66;4287544;33;33110;-85
2024/04/15 00:52:55;;;;;;;4.47;1.83;;;;;;;19.41;45.93;98857.81;4289251;33;33852;-86
2024/04/15 00:55:22;;;;;;;4.47;1.90;;;;;;;19.40;46.45;98856.09;4287907;33;34011;-86
2024/04/15 00:57:50;;;;;;;4.57;2.15;;;;;;;19.34;46.30;98851.00;4300736;33;34855;-85
2024/04/15 01:00:17;;;;;;;3.65;1.65;;;;;;;19.28;46.52;98851.19;4300621;33;33242;-85
2024/04/15 01:02:45;;;;;;;5.62;1.83;;;;;;;19.27;46.41;98836.31;4304013;33;34608;-85
2024/04/15 01:05:12;;;;;;;5.72;1.62;;;;;;;19.25;46.08;98840.75;4298421;33;76437;-86
2024/04/15 01:07:38;;;;;;;4.03;1.75;;;;;;;19.24;46.59;98833.75;4289435;33;34335;-86
2024/04/15 01:10:05;;;;;;;3.97;1.87;;;;;;;19.27;46.07;98825.78;4295288;33;33537;-83
2024/04/15 01:12:32;;;;;;;4.00;1.83;;;;;;;19.13;46.54;98818.31;4315000;33;33941;-87
2024/04/15 01:14:59;;;;;;;4.28;1.95;;;;;;;19.09;46.79;98813.16;4303594;33;34248;-88
2024/04/15 01:17:25;;;;;;;5.55;1.98;;;;;;;18.92;46.35;98811.00;4305586;33;33953;-86
2024/04/15 01:19:54;;;;;;;6.50;1.83;;;;;;;18.86;46.19;98809.38;4314557;33;33686;-85
2024/04/15 01:22:23;;;;;;;4.18;2.00;;;;;;;18.81;45.91;98799.91;4302186;33;34641;-87
2024/04/15 01:24:50;;;;;;;4.05;1.85;;;;;;;18.86;45.86;98804.13;4301996;33;34234;-85
2024/04/15 01:27:17;;;;;;;4.18;1.73;;;;;;;18.85;46.13;98794.53;4300282;33;34764;-85
2024/04/15 01:29:44;;;;;;;3.50;1.60;;;;;;;18.91;45.95;98794.38;4287467;33;33665;-87
2024/04/15 01:32:10;;;;;;;6.25;1.90;;;;;;;18.95;45.62;98790.75;4301326;33;33462;-85
2024/04/15 01:34:37;;;;;;;6.47;2.08;;;;;;;18.87;45.98;98800.62;4315173;33;34172;-82
2024/04/15 01:37:04;;;;;;;4.85;2.10;;;;;;;18.66;46.30;98806.38;4309955;33;34699;-85
2024/04/15 01:39:30;;;;;;;6.37;2.15;;;;;;;18.58;46.91;98800.47;4310240;33;34369;-84
2024/04/15 01:41:57;;;;;;;4.18;1.92;;;;;;;18.47;46.98;98792.88;4314708;33;34134;-86
2024/04/15 01:44:24;;;;;;;5.40;2.10;;;;;;;18.34;47.28;98789.69;4300460;33;33296;-83
2024/04/15 01:46:50;;;;;;;5.05;2.30;;;;;;;18.37;47.23;98784.38;4300379;33;34142;-86
2024/04/15 01:49:16;;;;;;;4.82;2.00;;;;;;;18.31;47.54;98779.28;4300473;33;33142;-88
2024/04/15 01:51:43;;;;;;;4.47;2.00;;;;;;;18.37;47.64;98773.87;4300450;33;34699;-86
2024/04/15 01:54:10;;;;;;;5.50;2.75;;;;;;;18.41;47.86;98766.75;4311571;33;33847;-86
2024/04/15 01:56:36;;;;;;;8.02;2.35;;;;;;;18.62;47.66;98768.00;4314671;33;33799;-86
2024/04/15 01:59:03;;;;;;;7.60;2.80;;;;;;;18.75;47.84;98766.78;4316542;33;33441;-86
2024/04/15 02:01:30;;;;;;;6.12;3.00;;;;;;;18.74;48.35;98762.44;4303462;33;34160;-85
2024/04/15 02:03:58;;;;;;;5.25;2.70;;;;;;;18.70;49.10;98753.78;4305725;33;34154;-87
2024/04/15 02:06:25;;;;;;;6.37;3.22;;;;;;;18.38;50.19;98740.62;4301760;33;34058;-84
2024/04/15 02:08:51;;;;;;;6.85;2.92;;;;;;;18.67;49.51;98738.06;4301955;33;34493;-85
2024/04/15 02:11:18;;;;;;;6.37;3.17;;;;;;;18.68;49.36;98733.72;4301673;33;34725;-85
2024/04/15 02:13:44;;;;;;;8.90;3.58;;;;;;;18.67;49.87;98726.72;4294285;33;34115;-86
2024/04/15 02:16:11;;;;;;;5.97;2.97;;;;;;;18.80;49.92;98736.03;4309009;33;34691;-86
2024/04/15 02:18:37;;;;;;;5.68;3.28;;;;;;;18.76;50.15;98723.88;4302164;33;34230;-86
2024/04/15 02:21:05;;;;;;;7.70;3.55;;;;;;;18.60;50.70;98719.91;4302013;33;34037;-86
2024/04/15 02:23:32;;;;;;;8.98;3.40;;;;;;;18.65;50.82;98723.28;4289757;33;35072;-85
2024/04/15 02:25:58;;;;;;;6.25;3.37;;;;;;;18.75;51.00;98723.91;4301975;33;34635;-86
2024/04/15 02:28:25;;;;;;;5.28;3.40;;;;;;;18.63;51.21;98719.81;4302021;33;32735;-84
2024/04/15 02:30:51;;;;;;;7.90;3.50;;;;;;;18.57;51.32;98709.50;4301572;33;34477;-87
2024/04/15 02:33:18;;;;;;;6.62;3.67;;;;;;;18.56;51.47;98702.50;4308882;33;33940;-85
2024/04/15 02:35:46;;;;;;;6.97;3.70;;;;;;;18.56;51.59;98694.62;4305618;33;34304;-84
2024/04/15 02:38:12;;;;;;;7.47;3.83;;;;;;;18.55;51.48;98695.53;4310103;33;34183;-87
2024/04/15 02:40:39;;;;;;;8.80;3.67;;;;;;;18.58;51.18;98691.06;4313643;33;33924;-83
2024/04/15 02:43:06;;;;;;;11.82;4.65;;;;;;;18.57;51.70;98696.38;4316163;33;34500;-86
2024/04/15 02:45:32;;;;;;;7.25;4.20;;;;;;;18.47;52.01;98693.97;4299554;33;34156;-86
2024/04/15 02:47:59;;;;;;;9.82;4.28;;;;;;;18.33;52.64;98690.00;4302385;33;33322;-84
2024/04/15 02:50:25;;;;;;;8.48;4.47;;;;;;;18.39;52.59;98685.44;4302195;33;35119;-85
2024/04/15 02:52:52;;;;;;;8.68;4.47;;;;;;;18.44;52.81;98682.69;4303299;33;34918;-83
2024/04/15 02:55:19;;;;;;;7.57;4.30;;;;;;;18.29;53.47;98677.84;4304006;33;33522;-84
2024/04/15 02:57:45;;;;;;;7.12;4.28;;;;;;;18.33;53.89;98675.09;4301786;33;34319;-85
2024/04/15 03:00:12;;;;;;;7.90;4.35;;;;;;;18.39;53.72;98669.72;4301930;33;33132;-84
2024/04/15 03:02:38;;;;;;;8.10;4.65;;;;;;;18.28;54.54;98666.50;4292481;33;34161;-85
2024/04/15 03:05:05;;;;;;;9.35;4.97;;;;;;;18.25;55.29;98656.09;4305232;33;33553;-84
2024/04/15 03:07:31;;;;;;;10.30;5.05;;;;;;;18.09;55.73;98646.91;4293194;33;33436;-83
2024/04/15 03:09:58;;;;;;;8.25;5.30;;;;;;;18.22;55.40;98651.81;4300445;33;34044;-84
2024/04/15 03:12:24;;;;;;;9.98;5.10;;;;;;;18.26;55.26;98646.44;4313268;33;33740;-84
2024/04/15 03:14:51;;;;;;;7.62;5.18;;;;;;;18.29;55.08;98647.22;4302680;33;34072;-86
2024/04/15 03:17:18;;;;;;;10.88;4.65;;;;;;;18.11;55.76;98643.34;4301757;33;33554;-84
2024/04/15 03:19:44;;;;;;;7.55;5.12;;;;;;;18.09;56.15;98633.78;4288699;33;33778;-85
2024/04/15 03:22:11;;;;;;;7.87;5.40;;;;;;;18.18;55.87;98633.53;4302191;33;34690;-84
2024/04/15 03:24:37;;;;;;;10.73;5.28;;;;;;;18.12;56.06;98636.34;4306351;33;33456;-84
2024/04/15 03:27:05;;;;;;;7.37;5.00;;;;;;;18.13;56.03;98633.66;4301432;33;33195;-85
2024/04/15 03:29:32;;;;;;;8.50;4.80;;;;;;;18.05;56.20;98638.25;4302006;33;33825;-86
2024/04/15 03:31:58;;;;;;;10.20;5.65;;;;;;;18.14;55.99;98638.00;4301258;33;33921;-84
2024/04/15 03:34:25;;;;;;;8.05;4.93;;;;;;;18.11;56.14;98626.75;4301566;33;32597;-85
2024/04/15 03:36:52;;;;;;;8.50;5.22;;;;;;;18.00;56.52;98627.03;4291252;33;33630;-83
2024/04/15 03:39:19;;;;;;;9.88;5.07;;;;;;;18.19;56.07;98622.16;4304107;33;34881;-85
2024/04/15 03:41:45;;;;;;;9.20;5.62;;;;;;;18.04;56.37;98625.19;4314116;33;34511;-84
2024/04/15 03:44:12;;;;;;;7.43;5.60;;;;;;;18.12;56.13;98617.97;4311566;33;33966;-83
2024/04/15 03:46:38;;;;;;;9.20;5.30;;;;;;;18.04;56.45;98626.03;4316280;33;33286;-84
2024/04/15 03:49:05;;;;;;;9.93;5.95;;;;;;;17.97;56.71;98620.09;4316050;33;33941;-85
2024/04/15 03:51:31;;;;;;;9.27;6.18;;;;;;;18.01;56.67;98620.00;4316246;33;33886;-86
2024/04/15 03:53:58;;;;;;;10.00;6.30;;;;;;;17.93;56.92;98614.97;4315987;33;33487;-81
2024/04/15 03:56:25;;;;;;;9.73;5.65;;;;;;;17.79;57.24;98620.56;4301482;33;33891;-86
2024/04/15 03:58:51;;;;;;;10.55;6.37;;;;;;;18.01;56.79;98609.53;4302026;33;34165;-86
2024/04/15 04:01:18;;;;;;;10.13;6.35;;;;;;;17.92;56.97;98616.72;4301528;33;34333;-86
2024/04/15 04:03:44;;;;;;;9.77;6.82;;;;;;;17.89;57.40;98606.31;4287643;33;33709;-86
2024/04/15 04:06:11;;;;;;;12.95;7.12;;;;;;;17.73;57.74;98600.56;4301340;33;33377;-83
2024/04/15 04:08:41;;;;;;;11.10;7.37;;;;;;;17.61;58.28;98603.47;4303350;33;33797;-82
2024/04/15 04:11:08;;;;;;;15.18;7.35;;;;;;;17.66;58.34;98608.63;4305874;33;33920;-88
2024/04/15 04:13:38;;;;;;;12.23;7.53;;;;;;;17.73;58.00;98597.94;4300340;33;34693;-82
2024/04/15 04:16:04;;;;;;;12.00;7.72;;;;;;;17.63;58.41;98591.22;4304704;33;33319;-83
2024/04/15 04:18:31;;;;;;;9.27;7.25;;;;;;;17.69;58.27;98592.81;4311098;33;34095;-86
2024/04/15 04:20:58;;;;;;;12.52;7.93;;;;;;;17.92;57.51;98590.50;4303192;33;34851;-84
2024/04/15 04:23:24;;;;;;;12.48;7.90;;;;;;;17.66;58.30;98583.28;4310595;33;33971;-85
2024/04/15 04:25:51;;;;;;;12.35;7.55;;;;;;;17.68;58.38;98580.59;4302972;33;33608;-84
2024/04/15 04:28:19;;;;;;;10.40;6.97;;;;;;;17.72;58.38;98582.25;4302848;33;33347;-86
2024/04/15 04:30:45;;;;;;;12.02;7.72;;;;;;;17.75;58.48;98590.06;4309098;33;34242;-87
2024/04/15 04:33:12;;;;;;;12.30;8.07;;;;;;;17.75;58.48;98576.97;4315042;33;34661;-83
2024/04/15 04:35:39;;;;;;;12.32;7.62;;;;;;;17.61;59.16;98579.03;4311272;33;32929;-89
2024/04/15 04:38:06;;;;;;;10.00;7.62;;;;;;;17.62;59.15;98576.37;4305134;33;33370;-85
2024/04/15 04:40:33;;;;;;;12.70;8.25;;;;;;;17.69;59.07;98577.06;4308717;33;34182;-86
2024/04/15 04:43:00;;;;;;;13.32;7.93;;;;;;;17.60;59.43;98579.94;4311907;33;33687;-88
2024/04/15 04:45:26;;;;;;;13.88;8.35;;;;;;;17.65;59.67;98581.56;4305523;33;33487;-89
2024/04/15 04:47:53;;;;;;;12.18;7.87;;;;;;;17.58;59.76;98569.50;4292624;33;33873;-84
2024/04/15 04:50:22;;;;;;;10.23;7.22;;;;;;;17.76;59.36;98570.81;4290278;33;35229;-88
2024/04/15 04:52:49;;;;;;;10.85;7.43;;;;;;;17.71;59.64;98573.53;4303499;33;34288;-87
2024/04/15 04:55:16;;;;;;;14.27;7.40;;;;;;;17.78;59.61;98569.03;4294385;33;34475;-84
2024/04/15 04:57:43;;;;;;;12.00;7.70;;;;;;;17.80;59.31;98569.81;4302645;33;34274;-86
2024/04/15 05:00:10;;;;;;;15.10;7.68;;;;;;;17.80;59.48;98559.34;4303076;33;34294;-85
2024/04/15 05:02:36;;;;;;;11.32;7.85;;;;;;;17.70;60.12;98557.84;4289496;33;33922;-89
2024/04/15 05:05:05;;;;;;;12.73;8.05;;;;;;;17.64;60.20;98565.84;4288335;33;34039;-89
2024/04/15 05:07:32;;;;;;;10.93;7.50;;;;;;;17.66;60.33;98559.69;4301943;33;33516;-88
2024/04/15 05:09:58;;;;;;;13.30;7.87;;;;;;;17.79;59.89;98551.53;4301442;33;34108;-90
2024/04/15 05:12:25;;;;;;;14.48;8.52;;;;;;;17.80;60.00;98554.09;4301001;33;35027;-88
2024/04/15 05:14:53;;;;;;;13.10;7.70;;;;;;;17.67;59.04;98535.19;4301973;33;33297;-87
2024/04/15 05:17:19;;;;;;;14.95;8.60;;;;;;;17.86;59.54;98532.97;4311660;33;33932;-86
2024/04/15 05:19:46;;;;;;;11.05;7.93;;;;;;;17.78;59.13;98547.19;4302156;33;34140;-85
2024/04/15 05:22:13;;;;;;;12.32;8.23;;;;;;;17.91;58.61;98544.19;4310110;33;34294;-87
2024/04/15 05:24:39;;;;;;;14.68;8.95;;;;;;;17.89;58.93;98547.78;4301853;33;33207;-86
2024/04/15 05:27:06;;;;;;;11.98;8.65;;;;;;;17.86;58.87;98543.47;4301315;33;34766;-87
2024/04/15 05:29:32;;;;;;;15.10;8.65;;;;;;;17.82;58.10;98533.94;4290614;33;34777;-88
2024/04/15 05:31:59;;;;;;;12.55;8.57;;;;;;;17.69;58.04;98529.87;4312379;33;33574;-87
2024/04/15 05:34:25;;;;;;;13.27;8.13;;;;;;;17.73;57.88;98526.31;4304385;33;33480;-86
2024/04/15 05:36:52;;;;;;;11.12;8.32;;;;;;;18.00;57.29;98522.13;4311371;33;33856;-85
2024/04/15 05:39:18;;;;;;;11.48;8.32;;;;;;;17.90;57.18;98529.34;4308184;33;34049;-89
2024/04/15 05:41:45;;;;;;;10.63;8.23;;;;;;;17.97;56.58;98515.19;4304165;33;33446;-90
2024/04/15 05:44:12;;;;;;;11.70;7.55;;;;;;;18.02;56.14;98511.56;4304117;33;34137;-88
2024/04/15 05:46:48;;;;;;;12.15;7.43;;;;;;;17.76;57.37;98502.62;4303155;33;33397;-88
2024/04/15 05:49:15;;;;;;;13.48;7.93;;;;;;;17.63;57.72;98498.59;4302299;33;34549;-89
2024/04/15 05:51:41;;;;;;;16.35;8.02;;;;;;;17.74;57.14;98496.56;4290930;33;34823;-90
2024/04/15 05:54:08;;;;;;;12.70;7.80;;;;;;;17.94;57.11;98503.91;4303440;33;33463;-91
2024/04/15 05:56:34;;;;;;;12.95;8.23;;;;;;;17.97;56.99;98504.69;4315813;33;33871;-90
2024/04/15 05:59:01;;;;;;;10.90;7.60;;;;;;;17.95;57.10;98503.84;4317160;33;34173;-91
2024/04/15 06:01:28;;;;;;;16.60;8.00;;;;;;;18.11;57.24;98495.59;4303778;33;33180;-91
2024/04/15 06:03:54;;;;;;;13.75;7.10;;;;;;;18.09;56.52;98486.88;4317100;33;33169;-90
2024/04/15 06:06:21;;;;;;;10.43;7.05;;;;;;;18.13;56.44;98481.50;4317539;33;33233;-91
2024/04/15 06:08:47;;;;;;;10.65;6.87;;;;;;;18.30;55.43;98483.66;4304043;33;33249;-91
2024/04/15 06:11:14;;;;;;;12.70;7.00;;;;;;;18.20;55.67;98485.69;4303890;33;34138;-91
2024/04/15 06:13:41;;;;;;;13.43;7.72;;;;;;;18.23;55.61;98489.97;4317851;33;33365;-87
2024/04/15 06:16:07;;;;;;;11.52;6.25;;;;;;;18.24;55.45;98489.06;4317388;33;34434;-91
2024/04/15 06:18:34;;;;;;;11.77;7.00;;;;;;;18.23;55.05;98476.87;4317196;33;34320;-92
2024/04/15 06:21:00;;;;;;;13.98;6.80;;;;;;;18.48;54.43;98479.59;4317367;33;33745;-91
2024/04/15 06:23:27;;;;;;;15.60;6.93;;;;;;;18.50;53.84;98480.44;4317375;33;33524;-91
2024/04/15 06:25:54;;;;;;;11.70;6.65;;;;;;;18.35;54.65;98483.50;4317396;33;33802;-91
2024/04/15 06:28:20;;;;;;;9.90;6.43;;;;;;;18.32;54.20;98494.94;4317518;33;34555;-90
2024/04/15 06:30:47;;;;;;;11.57;6.62;;;;;;;18.36;54.31;98496.56;4317316;33;33560;-90
2024/04/15 06:33:13;;;;;;;10.75;6.45;;;;;;;18.54;53.53;98495.19;4304559;33;31995;-89
2024/04/15 06:35:40;;;;;;;11.93;6.70;;;;;;;18.55;53.35;98493.41;4317581;33;33769;-88
2024/04/15 06:38:09;;;;;;;15.35;6.50;;;;;;;18.84;52.37;98490.78;4304426;33;32785;-88
2024/04/15 06:40:36;;;;;;;14.35;6.95;;;;;;;18.69;53.26;98491.22;4304152;33;34611;-87
2024/04/15 06:43:02;;;;;;;19.20;7.00;;;;;;;18.82;52.72;98495.22;4317089;33;33187;-89
2024/04/15 06:45:29;;;;;;;11.05;6.85;;;;;;;18.80;53.44;98491.78;4303911;33;33875;-88
2024/04/15 06:47:56;;;;;;;12.77;7.03;;;;;;;18.81;53.30;98487.38;4303696;33;34916;-88
2024/04/15 06:50:22;;;;;;;11.57;6.45;;;;;;;19.04;53.22;98490.13;4317062;33;33632;-87
2024/04/15 06:52:49;;;;;;;11.98;6.22;;;;;;;19.03;52.78;98479.69;4317007;33;33502;-88
2024/04/15 06:55:17;;;;;;;15.38;6.05;;;;;;;19.05;53.15;98477.84;4304000;33;33659;-86
2024/04/15 06:57:44;;;;;;;9.23;5.43;;;;;;;19.19;52.62;98468.63;4303958;33;32694;-88
2024/04/15 07:00:12;;;;;;;14.23;6.37;;;;;;;19.41;52.20;98467.91;4316947;33;34572;-87
2024/04/15 07:02:40;;;;;;;17.10;6.18;;;;;;;19.61;51.51;98459.31;4317017;33;33368;-85
2024/04/15 07:05:07;;;;;;;14.00;6.57;;;;;;;19.41;52.39;98458.25;4317108;33;33562;-89
2024/04/15 07:07:34;;;;;;;12.63;6.47;;;;;;;19.57;51.79;98455.09;4303617;33;33855;-88
2024/04/15 07:10:06;;;;;;;12.23;6.20;;;;;;;19.82;51.38;98440.19;4316705;33;34464;-88
2024/04/15 07:12:32;;;;;;;12.48;6.70;;;;;;;19.78;52.23;98451.75;4317111;33;33148;-88
2024/04/15 07:14:59;;;;;;;10.70;6.28;;;;;;;19.76;51.23;98450.06;4316534;33;33719;-88
2024/04/15 07:17:25;;;;;;;12.18;5.53;;;;;;;19.64;52.20;98456.63;4316756;33;34067;-87
2024/04/15 07:19:52;;;;;;;10.35;6.30;;;;;;;19.76;51.30;98453.56;4316810;33;34820;-87
2024/04/15 07:22:18;;;;;;;10.85;6.55;;;;;;;19.91;50.99;98450.38;4316960;33;33343;-88
2024/04/15 07:24:45;;;;;;;10.05;6.07;;;;;;;19.79;51.90;98452.59;4315756;33;34634;-87
2024/04/15 07:27:12;;;;;;;12.27;6.47;;;;;;;19.75;51.92;98462.37;4317004;33;33404;-88
2024/04/15 07:29:38;;;;;;;11.52;6.78;;;;;;;19.75;51.33;98457.09;4316383;33;34731;-88
2024/04/15 07:32:05;;;;;;;10.82;6.15;;;;;;;20.01;51.05;98452.69;4316651;33;34269;-87
2024/04/15 07:34:32;;;;;;;14.10;7.65;;;;;;;19.77;51.34;98457.88;4316786;33;33617;-88
2024/04/15 07:36:58;;;;;;;13.85;6.25;;;;;;;20.11;50.91;98464.56;4317148;33;34149;-87
2024/04/15 07:39:25;;;;;;;11.10;6.55;;;;;;;19.67;52.11;98460.00;4315004;33;33262;-88
2024/04/15 07:41:51;;;;;;;10.82;6.75;;;;;;;19.96;51.15;98460.72;4310276;33;34432;-88
2024/04/15 07:44:18;;;;;;;9.45;6.60;;;;;;;19.93;50.90;98456.44;4316274;33;33960;-86
2024/04/15 07:46:44;;;;;;;9.15;6.20;;;;;;;20.10;50.44;98452.31;4316295;33;34117;-87
2024/04/15 07:49:11;;;;;;;13.25;7.15;;;;;;;20.36;50.26;98444.28;4302883;33;34495;-88
2024/04/15 07:51:38;;;;;;;12.93;6.82;;;;;;;20.38;50.70;98437.22;4316432;33;33462;-87
2024/04/15 07:54:04;;;;;;;11.75;6.90;;;;;;;20.31;51.14;98435.72;4316386;33;34650;-87
2024/04/15 07:56:31;;;;;;;11.95;7.20;;;;;;;20.31;49.99;98422.56;4300426;33;34291;-87
2024/04/15 07:58:58;;;;;;;11.93;7.12;;;;;;;20.03;51.16;98416.63;4307892;33;33891;-87
2024/04/15 08:01:24;;;;;;;11.52;6.70;;;;;;;20.13;51.40;98413.59;4316406;33;33444;-87
2024/04/15 08:03:51;;;;;;;13.65;7.18;;;;;;;20.36;51.37;98407.44;4316341;33;33829;-87
2024/04/15 08:06:18;;;;;;;13.73;6.47;;;;;;;20.30;51.02;98407.66;4297081;33;33656;-86
2024/04/15 08:08:45;;;;;;;13.32;8.38;;;;;;;20.26;51.38;98418.38;4316517;33;34218;-85
2024/04/15 08:11:15;;;;;;;12.48;7.12;;;;;;;20.32;51.31;98429.53;4315987;33;33270;-87
2024/04/15 08:13:46;;;;;;;13.07;7.20;;;;;;;20.11;51.00;98432.97;4302953;33;33401;-88
2024/04/15 08:16:14;;;;;;;13.65;7.90;;;;;;;20.15;52.12;98426.69;4316841;33;34721;-87
2024/04/15 08:18:49;;;;;;;13.30;7.22;;;;;;;20.36;51.02;98427.66;4316516;33;33496;-87
2024/04/15 08:21:20;;;;;;;15.18;7.68;;;;;;;20.49;51.02;98435.91;4316816;33;33126;-87
2024/04/15 08:23:46;;;;;;;18.62;7.68;;;;;;;20.36;50.99;98428.50;4316281;33;33984;-88
2024/04/15 08:26:13;;;;;;;11.65;7.50;;;;;;;20.39;51.67;98436.28;4315902;33;33423;-87
2024/04/15 08:28:40;;;;;;;17.08;8.20;;;;;;;20.38;50.98;98425.81;4301749;33;33647;-88
2024/04/15 08:31:07;;;;;;;17.83;8.00;;;;;;;20.56;51.20;98432.16;4316050;33;33806;-89
2024/04/15 08:33:33;;;;;;;10.43;7.37;;;;;;;20.39;51.02;98432.81;4316157;33;33967;-89
2024/04/15 08:36:01;;;;;;;12.63;7.43;;;;;;;20.48;51.78;98437.69;4316151;33;33702;-88
2024/04/15 08:38:28;;;;;;;11.68;7.05;;;;;;;20.50;52.01;98441.19;4315895;33;34053;-89
2024/04/15 08:40:57;;;;;;;17.77;8.15;;;;;;;20.54;52.27;98439.28;4315839;33;33389;-89
2024/04/15 08:43:25;;;;;;;13.20;7.60;;;;;;;20.82;51.95;98439.88;4302865;33;33659;-90
2024/04/15 08:45:55;;;;;;;12.30;7.70;;;;;;;20.58;51.89;98446.16;4315992;33;34320;-88
2024/04/15 08:48:25;;;;;;;13.62;7.50;;;;;;;20.62;51.31;98445.97;4315975;33;33993;-88
2024/04/15 08:50:56;;;;;;;11.75;7.00;;;;;;;20.61;51.59;98448.66;4315636;33;33566;-88
2024/04/15 08:53:25;;;;;;;11.12;7.05;;;;;;;20.86;50.56;98437.97;4316012;33;33638;-88
2024/04/15 08:55:52;;;;;;;13.82;6.82;;;;;;;20.67;51.62;98440.50;4315901;33;33897;-87
2024/04/15 08:58:19;;;;;;;14.18;6.55;;;;;;;20.65;51.99;98434.44;4315853;33;33956;-88
2024/04/15 09:00:47;;;;;;;13.93;6.90;;;;;;;20.69;51.46;98438.69;4315793;33;33939;-88
2024/04/15 09:03:14;;;;;;;10.93;6.75;;;;;;;20.82;52.50;98437.25;4315647;33;34753;-88
2024/04/15 09:05:41;;;;;;;14.55;6.97;;;;;;;21.00;51.45;98434.78;4315635;33;34892;-88
2024/04/15 09:08:08;;;;;;;11.18;6.82;;;;;;;21.08;51.04;98430.06;4316777;33;34120;-87
2024/04/15 09:10:34;;;;;;;12.05;6.35;;;;;;;21.14;50.76;98430.66;4303907;33;33117;-88
2024/04/15 09:13:01;;;;;;;14.68;7.32;;;;;;;21.21;50.53;98427.75;4304246;33;35384;-88
2024/04/15 09:15:28;;;;;;;14.45;7.25;;;;;;;21.44;51.03;98429.44;4317382;33;34136;-87
2024/04/15 09:17:54;;;;;;;12.75;6.90;;;;;;;21.64;50.90;98425.97;4317451;33;33576;-88
2024/04/15 09:20:21;;;;;;;13.40;7.20;;;;;;;21.71;50.49;98414.22;4304558;33;33401;-87
2024/04/15 09:22:47;;;;;;;10.73;7.28;;;;;;;21.90;48.58;98422.16;4317456;33;34601;-87
2024/04/15 09:25:14;;;;;;;14.23;7.18;;;;;;;22.19;47.40;98424.34;4317498;33;33026;-87
2024/04/15 09:27:41;;;;;;;12.13;7.25;;;;;;;21.94;49.20;98423.75;4315595;33;33721;-85
2024/04/15 09:30:08;;;;;;;21.85;7.00;;;;;;;22.12;49.24;98433.44;4291721;33;35581;-85
2024/04/15 09:32:35;;;;;;;13.13;6.78;;;;;;;22.42;48.59;98436.47;4302928;33;33614;-88
2024/04/15 09:35:03;;;;;;;13.02;6.80;;;;;;;22.42;48.08;98440.91;4302788;33;35141;-87
2024/04/15 09:37:36;;;;;;;16.10;6.07;;;;;;;22.61;47.61;98430.31;4293889;33;33997;-89
2024/04/15 09:40:07;;;;;;;13.90;6.30;;;;;;;22.70;48.70;98422.81;4298844;33;33170;-85
2024/04/15 09:42:37;;;;;;;13.93;6.78;;;;;;;22.98;47.48;98409.13;4324771;33;33983;-87
2024/04/15 09:45:16;;;;;;;15.75;7.43;;;;;;;22.57;47.74;98414.63;4305865;33;34779;-87
2024/04/15 09:47:45;;;;;;;13.90;6.55;;;;;;;22.85;47.24;98420.38;4322032;33;34121;-86
2024/04/15 09:50:12;;;;;;;15.57;5.82;;;;;;;22.91;48.28;98422.69;4320909;33;33432;-87
2024/04/15 09:52:42;;;;;;;12.63;6.32;;;;;;;22.78;46.76;98425.09;4319129;33;34000;-87
2024/04/15 09:55:09;;;;;;;9.57;5.72;;;;;;;23.08;46.60;98420.12;4304501;33;34804;-88
2024/04/15 09:57:40;;;;;;;11.73;5.80;;;;;;;23.02;46.96;98421.25;4303610;33;34786;-88
2024/04/15 10:00:12;;;;;;;8.70;5.62;;;;;;;23.13;46.57;98420.72;4316562;33;33384;-86
2024/04/15 10:02:47;;;;;;;12.88;6.40;;;;;;;23.20;46.39;98414.22;4304028;33;34996;-88
2024/04/15 10:05:25;;;;;;;11.60;5.37;;;;;;;23.64;45.84;98407.53;4316962;33;34166;-88
2024/04/15 10:07:53;;;;;;;11.27;5.80;;;;;;;23.54;46.45;98402.75;4304787;33;33923;-87
2024/04/15 10:10:23;;;;;;;9.90;4.82;;;;;;;23.73;45.25;98401.81;4310069;33;33049;-88
2024/04/15 10:12:54;;;;;;;7.35;4.28;;;;;;;23.75;44.04;98406.09;4318435;33;33762;-88
2024/04/15 10:15:22;;;;;;;9.90;4.53;;;;;;;23.99;43.96;98413.66;4331591;33;35086;-87
2024/04/15 10:18:04;;;;;;;9.80;4.10;;;;;;;24.16;43.03;98413.59;4318322;33;34484;-88
2024/04/15 10:20:35;;;;;;;10.82;4.65;;;;;;;24.00;43.84;98407.44;4318072;33;34077;-87
2024/04/15 10:23:10;;;;;;;10.25;5.00;;;;;;;24.24;43.57;98405.22;4318116;33;33528;-88
2024/04/15 10:25:38;;;;;;;9.23;4.20;;;;;;;24.39;42.56;98396.47;4318263;33;34243;-87
2024/04/15 10:28:05;;;;;;;6.97;4.50;;;;;;;24.55;43.14;98404.44;4331553;33;34105;-87
2024/04/15 10:30:33;;;;;;;9.65;4.10;;;;;;;24.23;42.57;98407.03;4331530;33;33508;-87
2024/04/15 10:33:04;;;;;;;10.40;4.65;;;;;;;24.35;43.21;98404.62;4331614;33;33842;-88
2024/04/15 10:35:32;;;;;;;11.02;4.32;;;;;;;24.39;42.89;98400.91;4305751;33;34153;-88
2024/04/15 10:38:00;;;;;;;7.32;4.45;;;;;;;24.75;42.19;98398.84;4316758;33;34080;-88
2024/04/15 10:40:33;;;;;;;10.05;4.40;;;;;;;24.54;42.34;98389.44;4303455;33;32330;-87
2024/04/15 10:43:00;;;;;;;11.63;4.55;;;;;;;24.59;42.14;98392.72;4303444;33;34147;-87
2024/04/15 10:45:27;;;;;;;13.48;4.62;;;;;;;24.95;41.88;98388.88;4316824;33;33944;-87
2024/04/15 10:47:54;;;;;;;11.68;4.70;;;;;;;24.63;41.49;98394.25;4317124;33;34077;-88
2024/04/15 10:50:22;;;;;;;8.98;4.07;;;;;;;24.80;41.44;98385.31;4303241;33;33581;-85
2024/04/15 10:52:48;;;;;;;12.02;4.78;;;;;;;24.56;42.27;98384.94;4303414;33;34701;-85
2024/04/15 10:55:19;;;;;;;6.32;4.40;;;;;;;24.66;42.97;98386.13;4303451;33;34793;-87
2024/04/15 10:57:49;;;;;;;8.65;4.70;;;;;;;24.63;43.18;98388.09;4303192;33;34087;-85
2024/04/15 11:00:23;;;;;;;9.02;4.22;;;;;;;24.81;41.39;98381.72;4303656;33;33090;-87
2024/04/15 11:02:54;;;;;;;9.80;4.20;;;;;;;24.84;40.89;98380.69;4303390;33;33370;-87
2024/04/15 11:05:22;;;;;;;12.85;5.18;;;;;;;25.23;40.55;98385.50;4316831;33;33848;-87
2024/04/15 11:07:51;;;;;;;9.27;4.30;;;;;;;25.31;42.15;98385.91;4316717;33;34531;-86
2024/04/15 11:10:18;;;;;;;13.52;4.90;;;;;;;25.15;42.94;98377.97;4316541;33;33893;-87
2024/04/15 11:12:46;;;;;;;10.30;4.05;;;;;;;25.19;39.83;98376.87;4312441;33;34052;-86
2024/04/15 11:15:18;;;;;;;11.95;4.50;;;;;;;25.01;41.84;98369.97;4306369;33;34150;-88
2024/04/15 11:17:50;;;;;;;11.02;4.82;;;;;;;25.23;40.27;98359.81;4291214;33;34618;-88
2024/04/15 11:20:17;;;;;;;9.55;4.90;;;;;;;24.76;41.40;98367.88;4302989;33;33603;-88
2024/04/15 11:22:45;;;;;;;11.77;5.03;;;;;;;25.24;41.31;98368.63;4316532;33;34879;-88
2024/04/15 11:25:12;;;;;;;9.82;5.00;;;;;;;24.96;42.67;98369.37;4316462;33;34076;-88
2024/04/15 11:27:53;;;;;;;12.43;5.05;;;;;;;24.90;42.23;98370.59;4300918;33;34482;-88
2024/04/15 11:30:25;;;;;;;15.00;5.53;;;;;;;25.38;40.94;98351.88;4288038;33;33066;-89